Time;durP1;ratioP1;P1;durP2;ratioP2;P2;SDS_P1;SDS_P2;PMS_P1;PMS_P2;Temp;Humidity;BMP_temperature;BMP_pressure;BME280_temperature;BME280_humidity;BME280_pressure;Samples;Min_cycle;Max_cycle;Signal;HPM_P1;HPM_P2
2023/02/09 00:00:14;;;;;;;41.00;19.50;;;;;;;-5.76;66.77;102582.22;1701051;84;21209;-82
2023/02/09 00:03:19;;;;;;;46.70;21.17;;;;;;;-5.71;66.45;102589.71;1700718;84;21237;-82
2023/02/09 00:06:29;;;;;;;37.83;18.32;;;;;;;-5.61;66.55;102588.70;1699446;84;21181;-81
2023/02/09 00:09:34;;;;;;;41.87;19.97;;;;;;;-5.70;66.55;102590.14;1701267;84;21743;-81
2023/02/09 00:16:07;;;;;;;47.98;22.52;;;;;;;-5.83;66.85;102603.16;1700880;84;21161;-82
2023/02/09 00:19:12;;;;;;;46.58;23.12;;;;;;;-5.64;66.21;102593.20;1700728;84;21182;-83
2023/02/09 00:22:18;;;;;;;39.10;19.77;;;;;;;-6.07;67.18;102599.91;1699689;84;21261;-83
2023/02/09 00:25:24;;;;;;;44.05;20.45;;;;;;;-5.97;67.32;102594.03;1700843;84;21149;-82
2023/02/09 00:28:31;;;;;;;43.20;20.48;;;;;;;-6.15;67.42;102591.09;1702036;83;21198;-83
2023/02/09 00:31:37;;;;;;;46.33;21.60;;;;;;;-6.28;68.07;102598.75;1723049;83;21265;-83
2023/02/09 00:34:43;;;;;;;50.58;21.50;;;;;;;-6.03;67.59;102590.08;1723741;83;21220;-83
2023/02/09 00:37:48;;;;;;;50.05;23.45;;;;;;;-5.98;67.23;102597.12;1722943;83;21215;-81
2023/02/09 00:40:54;;;;;;;43.55;22.62;;;;;;;-5.98;67.04;102590.91;1723787;83;21180;-82
2023/02/09 00:44:01;;;;;;;48.10;22.40;;;;;;;-6.04;67.27;102582.53;1723716;83;21550;-82
2023/02/09 00:47:07;;;;;;;40.73;19.95;;;;;;;-6.02;66.83;102586.09;1723379;83;21211;-84
2023/02/09 00:50:14;;;;;;;46.42;22.67;;;;;;;-5.88;66.75;102588.58;1723703;83;21174;-82
2023/02/09 00:53:20;;;;;;;46.70;23.47;;;;;;;-5.92;66.61;102582.87;1722592;83;21820;-82
2023/02/09 00:56:25;;;;;;;46.37;22.50;;;;;;;-5.98;66.81;102579.80;1723704;83;21220;-82
2023/02/09 00:59:31;;;;;;;51.65;23.02;;;;;;;-6.25;67.33;102581.42;1723663;83;21711;-82
2023/02/09 01:02:36;;;;;;;45.40;23.75;;;;;;;-6.08;67.00;102580.80;1722230;83;21251;-83
2023/02/09 01:05:46;;;;;;;49.05;23.70;;;;;;;-6.02;66.81;102576.77;1722383;83;21161;-83
2023/02/09 01:08:53;;;;;;;52.78;23.73;;;;;;;-6.02;66.67;102571.43;1723661;83;21275;-82
2023/02/09 01:12:01;;;;;;;42.65;22.87;;;;;;;-5.99;66.53;102566.05;1722416;83;21188;-82
2023/02/09 01:15:08;;;;;;;49.70;23.95;;;;;;;-6.03;66.79;102561.64;1723633;83;21176;-83
2023/02/09 01:18:13;;;;;;;48.50;22.95;;;;;;;-6.00;66.72;102560.30;1722761;83;21204;-82
2023/02/09 01:21:19;;;;;;;52.15;25.10;;;;;;;-6.12;66.88;102559.07;1722501;83;21185;-83
2023/02/09 01:24:24;;;;;;;59.38;24.30;;;;;;;-6.34;67.95;102564.20;1723833;83;21173;-82
2023/02/09 01:27:31;;;;;;;56.90;25.48;;;;;;;-6.31;67.74;102565.02;1723771;83;21196;-83
2023/02/09 01:30:36;;;;;;;50.83;23.20;;;;;;;-6.34;67.79;102569.52;1715465;83;21786;-83
2023/02/09 01:33:43;;;;;;;45.28;23.00;;;;;;;-6.30;67.91;102565.94;1712612;83;21177;-83
2023/02/09 01:36:51;;;;;;;52.93;23.80;;;;;;;-6.34;67.84;102569.06;1710733;84;21220;-82
2023/02/09 01:39:57;;;;;;;55.83;24.80;;;;;;;-6.25;67.33;102564.11;1710684;84;21170;-82
2023/02/09 01:43:03;;;;;;;48.10;23.95;;;;;;;-6.13;66.37;102569.75;1709494;84;21192;-81
2023/02/09 01:46:11;;;;;;;56.10;25.90;;;;;;;-6.50;66.94;102566.09;1709470;84;21754;-84
2023/02/09 01:49:33;;;;;;;60.25;27.70;;;;;;;-6.20;66.85;102567.16;1709653;84;21224;-84
2023/02/09 01:52:38;;;;;;;63.35;28.70;;;;;;;-6.21;66.63;102572.48;1710195;84;21201;-82
2023/02/09 01:55:49;;;;;;;79.60;34.05;;;;;;;-6.00;66.51;102572.73;1710784;84;21166;-80
2023/02/09 01:58:55;;;;;;;109.90;37.55;;;;;;;-6.42;67.02;102568.25;1711050;84;21212;-82
2023/02/09 02:02:00;;;;;;;75.25;30.45;;;;;;;-6.56;67.24;102567.02;1711003;84;21212;-81
2023/02/09 02:05:06;;;;;;;72.85;33.15;;;;;;;-6.45;66.57;102566.48;1711064;84;21169;-82
2023/02/09 02:08:25;;;;;;;108.15;38.35;;;;;;;-6.29;66.66;102570.36;1711058;84;21244;-82
2023/02/09 02:11:31;;;;;;;115.37;42.03;;;;;;;-6.13;65.92;102573.30;1710991;84;21209;-82
2023/02/09 02:14:43;;;;;;;142.55;54.18;;;;;;;-6.09;65.59;102591.02;1710918;84;21201;-84
2023/02/09 02:18:04;;;;;;;98.90;40.43;;;;;;;-6.08;65.26;102584.79;1710910;84;21213;-84
2023/02/09 02:21:34;;;;;;;219.65;80.15;;;;;;;-6.13;65.10;102585.28;1711125;84;21168;-84
2023/02/09 02:24:57;;;;;;;194.87;77.27;;;;;;;-6.15;65.48;102584.44;1710942;84;21213;-83
2023/02/09 02:28:16;;;;;;;127.32;53.28;;;;;;;-6.16;65.13;102585.34;1713955;83;21208;-84
2023/02/09 02:32:03;;;;;;;79.07;37.08;;;;;;;-6.11;64.95;102571.52;1709803;83;21209;-84
2023/02/09 02:35:12;;;;;;;84.95;37.03;;;;;;;-6.50;65.85;102567.41;1710795;84;21718;-84
2023/02/09 02:38:28;;;;;;;94.60;39.53;;;;;;;-6.37;64.87;102558.44;1711013;84;21193;-84
2023/02/09 02:45:32;;;;;;;70.50;32.50;;;;;;;-7.01;66.91;102570.47;1710741;84;21228;-82
2023/02/09 02:48:50;;;;;;;63.17;28.23;;;;;;;-6.71;65.90;102560.50;1711121;84;21801;-84
2023/02/09 02:51:56;;;;;;;74.95;35.35;;;;;;;-6.66;65.65;102560.47;1706013;84;21188;-84
2023/02/09 02:55:07;;;;;;;72.53;34.00;;;;;;;-6.71;65.48;102563.16;1709635;84;21193;-84
2023/02/09 02:58:00;;;;;;;77.82;33.75;;;;;;;-6.83;65.66;102565.90;1709784;84;21197;-84
2023/02/09 03:01:06;;;;;;;60.45;29.67;;;;;;;-6.81;65.55;102570.33;1711198;84;21161;-83
2023/02/09 03:04:12;;;;;;;76.20;28.95;;;;;;;-6.81;65.36;102561.47;1710054;84;21184;-83
2023/02/09 03:07:19;;;;;;;74.62;33.50;;;;;;;-6.91;65.34;102562.44;1710455;84;21212;-83
2023/02/09 03:10:42;;;;;;;67.90;30.23;;;;;;;-6.95;65.56;102562.44;1710855;84;21182;-83
2023/02/09 03:14:01;;;;;;;61.20;28.27;;;;;;;-7.06;65.86;102552.75;1710359;84;21781;-82
2023/02/09 03:17:14;;;;;;;66.85;32.33;;;;;;;-6.99;65.91;102560.69;1685096;84;21260;-83
2023/02/09 03:20:23;;;;;;;;;;;;;;;-6.98;65.93;102558.45;1713342;84;21185;-84
2023/02/09 03:23:52;;;;;;;65.05;29.85;;;;;;;-6.92;66.14;102548.22;1714317;83;20203;-84
2023/02/09 03:27:03;;;;;;;57.13;26.97;;;;;;;-6.90;66.42;102551.77;1708007;84;21263;-83
2023/02/09 03:30:09;;;;;;;66.20;31.97;;;;;;;-6.64;65.84;102540.91;1709882;84;21817;-83
2023/02/09 03:33:35;;;;;;;59.53;28.52;;;;;;;-6.62;65.65;102540.47;1689450;83;21238;-83
2023/02/09 03:36:42;;;;;;;64.17;30.97;;;;;;;-6.63;65.68;102544.45;1715821;83;21541;-83
2023/02/09 03:39:48;;;;;;;65.87;29.40;;;;;;;-6.71;65.62;102537.88;1715688;83;21169;-83
2023/02/09 03:42:54;;;;;;;65.60;28.50;;;;;;;-7.06;66.24;102544.31;1707291;83;21212;-84
2023/02/09 03:46:00;;;;;;;61.13;28.73;;;;;;;-6.88;66.07;102531.78;1704742;84;21209;-83
2023/02/09 03:49:05;;;;;;;71.55;31.82;;;;;;;-7.07;66.07;102534.57;1705725;84;21229;-84
2023/02/09 03:52:12;;;;;;;66.50;32.15;;;;;;;-7.33;67.27;102534.75;1704469;84;21778;-83
2023/02/09 03:55:19;;;;;;;66.72;32.33;;;;;;;-6.82;65.89;102539.72;1704707;84;21209;-83
2023/02/09 03:58:24;;;;;;;73.42;33.63;;;;;;;-6.79;65.31;102537.05;1704739;84;21216;-83
2023/02/09 04:01:32;;;;;;;81.82;35.30;;;;;;;-7.17;66.14;102547.50;1705671;84;21746;-85
2023/02/09 04:04:37;;;;;;;69.97;34.53;;;;;;;-6.86;65.57;102548.19;1705159;84;21181;-83
2023/02/09 04:07:43;;;;;;;71.33;33.00;;;;;;;-6.97;65.72;102558.89;1704625;84;21789;-83
2023/02/09 04:10:49;;;;;;;70.80;34.13;;;;;;;-7.29;66.09;102558.19;1705903;84;21173;-84
2023/02/09 04:13:57;;;;;;;75.72;32.93;;;;;;;-7.40;66.77;102555.59;1705662;84;21210;-82
2023/02/09 04:17:01;;;;;;;81.10;34.13;;;;;;;-6.83;65.56;102553.47;1705409;84;21224;-83
2023/02/09 04:20:07;;;;;;;71.97;32.73;;;;;;;-6.99;65.68;102558.03;1705980;84;21166;-84
2023/02/09 04:23:14;;;;;;;76.07;34.88;;;;;;;-6.92;64.63;102550.88;1705911;84;21240;-83
2023/02/09 04:26:19;;;;;;;77.25;35.68;;;;;;;-7.39;65.25;102549.83;1706016;84;21166;-84
2023/02/09 04:29:25;;;;;;;67.70;32.90;;;;;;;-7.53;65.17;102554.80;1705896;84;21165;-82
2023/02/09 04:32:30;;;;;;;70.87;33.15;;;;;;;-7.31;64.88;102550.23;1705928;84;21759;-83
2023/02/09 04:35:36;;;;;;;74.95;35.08;;;;;;;-7.46;65.39;102549.88;1695655;84;21791;-84
2023/02/09 04:38:42;;;;;;;77.67;33.38;;;;;;;-8.18;67.34;102550.56;1690699;85;21312;-84
2023/02/09 04:41:47;;;;;;;82.45;33.38;;;;;;;-8.26;68.13;102552.34;1690452;85;21225;-82
2023/02/09 04:44:53;;;;;;;76.85;33.73;;;;;;;-8.37;68.61;102556.83;1690018;85;21170;-82
2023/02/09 04:47:58;;;;;;;76.53;33.60;;;;;;;-8.06;68.63;102558.94;1689721;85;21225;-84
2023/02/09 04:51:05;;;;;;;77.58;32.38;;;;;;;-8.18;68.85;102561.19;1690533;85;21743;-84
2023/02/09 04:54:11;;;;;;;78.92;32.88;;;;;;;-8.33;68.67;102567.38;1692929;84;21173;-84
2023/02/09 05:00:41;;;;;;;70.87;30.65;;;;;;;-8.15;67.02;102560.28;1713325;83;21789;-81
2023/02/09 05:03:46;;;;;;;74.03;31.37;;;;;;;-8.14;66.30;102553.62;1707258;84;21197;-84
2023/02/09 05:06:52;;;;;;;79.97;35.23;;;;;;;-8.26;65.95;102557.20;1705973;84;21596;-83
2023/02/09 05:09:58;;;;;;;94.67;41.58;;;;;;;-8.73;67.42;102553.28;1705968;84;21265;-83
2023/02/09 05:13:04;;;;;;;79.55;33.58;;;;;;;-8.90;68.17;102549.28;1705946;84;21241;-85
2023/02/09 05:16:21;;;;;;;74.37;33.55;;;;;;;-8.89;68.74;102551.48;1705855;84;21201;-84
2023/02/09 05:19:27;;;;;;;88.90;38.33;;;;;;;-8.36;67.42;102538.68;1707457;84;21209;-83
2023/02/09 05:22:25;;;;;;;;;;;;;;;-8.45;67.38;102544.87;1709961;84;21213;-82
2023/02/09 05:25:29;;;;;;;137.45;55.38;;;;;;;-8.39;67.66;102543.53;1713502;83;20199;-83
2023/02/09 05:28:30;;;;;;;137.77;57.67;;;;;;;-8.35;67.58;102549.70;1707500;84;21248;-82
2023/02/09 05:31:35;;;;;;;206.00;83.60;;;;;;;-8.44;67.64;102552.39;1693847;84;21189;-84
2023/02/09 05:34:41;;;;;;;121.80;54.80;;;;;;;-8.52;68.94;102556.36;1691557;84;21173;-83
2023/02/09 05:37:46;;;;;;;115.77;46.65;;;;;;;-7.91;67.81;102558.01;1690661;84;21220;-84
2023/02/09 05:40:52;;;;;;;128.97;58.83;;;;;;;-8.52;69.20;102558.58;1749765;82;21153;-83
2023/02/09 05:43:58;;;;;;;94.40;45.30;;;;;;;-8.08;69.64;102560.28;1749747;82;21159;-83
2023/02/09 05:47:03;;;;;;;89.60;40.40;;;;;;;-7.65;68.49;102563.25;1749757;79;21184;-82
2023/02/09 05:50:08;;;;;;;90.92;38.02;;;;;;;-7.76;69.25;102560.20;1768465;79;21699;-82
2023/02/09 05:53:16;;;;;;;80.07;35.28;;;;;;;-8.06;70.03;102558.48;1744584;79;21205;-84
2023/02/09 05:56:21;;;;;;;81.17;36.08;;;;;;;-7.90;70.62;102550.47;1736921;82;21758;-82
2023/02/09 05:59:28;;;;;;;75.17;36.03;;;;;;;-7.62;70.71;102561.89;1737464;82;21722;-83
2023/02/09 06:02:34;;;;;;;77.75;35.85;;;;;;;-7.65;70.45;102561.48;1737246;82;21745;-83
2023/02/09 06:05:39;;;;;;;74.60;33.60;;;;;;;-7.52;70.79;102563.20;1737335;82;21237;-82
2023/02/09 06:08:45;;;;;;;77.80;34.60;;;;;;;-7.39;70.08;102565.78;1737570;82;21193;-83
2023/02/09 06:11:52;;;;;;;69.67;36.08;;;;;;;-7.58;71.13;102568.97;1746921;79;21177;-83
2023/02/09 06:14:58;;;;;;;80.22;37.70;;;;;;;-7.55;71.37;102560.99;1741005;81;21205;-83
2023/02/09 06:18:04;;;;;;;85.50;36.10;;;;;;;-7.45;71.57;102560.05;1763137;81;21240;-83
2023/02/09 06:21:11;;;;;;;79.45;37.30;;;;;;;-7.26;71.67;102559.52;1762616;81;21698;-84
2023/02/09 06:24:16;;;;;;;74.90;33.90;;;;;;;-7.19;71.65;102564.38;1767921;79;21657;-82
2023/02/09 06:27:22;;;;;;;74.62;34.65;;;;;;;-6.86;71.64;102576.14;1770258;79;21148;-83
2023/02/09 06:30:27;;;;;;;79.35;36.50;;;;;;;-6.87;71.49;102572.13;1746606;81;21809;-83
2023/02/09 06:33:33;;;;;;;63.17;30.20;;;;;;;-6.13;70.33;102567.97;1763089;79;21543;-83
2023/02/09 06:36:40;;;;;;;83.03;33.83;;;;;;;-6.35;69.97;102571.72;1759007;80;22134;-83
2023/02/09 06:39:46;;;;;;;69.82;33.05;;;;;;;-5.97;69.49;102568.72;1764334;81;21191;-82
2023/02/09 06:42:53;;;;;;;64.30;31.02;;;;;;;-5.69;69.00;102563.94;1762114;80;21185;-82
2023/02/09 06:46:00;;;;;;;68.83;31.93;;;;;;;-5.48;68.06;102566.33;1736225;81;21177;-84
2023/02/09 06:49:05;;;;;;;71.12;34.67;;;;;;;-5.37;67.76;102569.30;1759005;80;21185;-83
2023/02/09 06:52:05;;;;;;;68.05;30.92;;;;;;;-5.48;68.08;102567.66;1748852;80;21212;-84
2023/02/09 06:54:58;;;;;;;69.22;32.58;;;;;;;-5.30;67.90;102565.66;1742173;81;21149;-84
2023/02/09 06:57:45;;;;;;;70.80;32.15;;;;;;;-5.43;68.19;102570.27;1753833;80;21185;-82
2023/02/09 07:00:38;;;;;;;77.15;33.05;;;;;;;-5.34;68.25;102566.60;1755355;80;21173;-83
2023/02/09 07:03:46;;;;;;;57.05;27.58;;;;;;;-5.02;68.02;102565.71;1750452;80;21150;-82
2023/02/09 07:06:51;;;;;;;63.35;29.40;;;;;;;-4.90;67.58;102570.85;1723908;81;21192;-83
2023/02/09 07:09:57;;;;;;;67.37;30.25;;;;;;;-4.55;67.11;102572.12;1745907;80;21169;-84
2023/02/09 07:13:04;;;;;;;62.15;30.25;;;;;;;-4.73;67.38;102570.61;1762814;81;21192;-82
2023/02/09 07:16:13;;;;;;;59.70;28.05;;;;;;;-4.57;67.48;102570.36;1754313;80;21141;-82
2023/02/09 07:19:18;;;;;;;58.10;28.02;;;;;;;-4.26;66.81;102574.30;1723839;81;21213;-82
2023/02/09 07:22:24;;;;;;;62.20;31.60;;;;;;;-4.09;66.32;102574.44;1726836;82;21201;-84
2023/02/09 07:25:17;;;;;;;61.90;29.60;;;;;;;-3.92;65.39;102582.58;1726152;81;21709;-82
2023/02/09 07:28:23;;;;;;;49.75;25.20;;;;;;;-4.17;66.32;102575.93;1705469;83;21224;-82
2023/02/09 07:31:29;;;;;;;62.10;29.15;;;;;;;-3.94;65.65;102576.85;1711547;83;21122;-81
2023/02/09 07:34:34;;;;;;;56.83;27.60;;;;;;;-4.24;66.25;102583.15;1733365;82;21204;-82
2023/02/09 07:37:40;;;;;;;58.80;25.95;;;;;;;-4.27;66.96;102586.36;1727666;82;21239;-81
2023/02/09 07:40:46;;;;;;;60.92;29.32;;;;;;;-4.61;68.00;102578.91;1724617;81;21173;-81
2023/02/09 07:43:52;;;;;;;61.90;29.18;;;;;;;-4.36;67.21;102587.39;1731726;81;21165;-81
2023/02/09 07:46:59;;;;;;;56.68;25.65;;;;;;;-4.18;67.03;102586.20;1702925;82;21177;-82
2023/02/09 07:50:05;;;;;;;58.35;29.30;;;;;;;-4.03;66.50;102582.37;1741192;81;21190;-82
2023/02/09 07:53:11;;;;;;;67.42;31.73;;;;;;;-4.10;67.06;102574.89;1717135;81;21201;-82
2023/02/09 07:56:17;;;;;;;70.32;33.50;;;;;;;-3.56;65.88;102583.25;1688763;82;21203;-84
2023/02/09 07:59:24;;;;;;;67.60;29.45;;;;;;;-3.08;65.08;102592.05;1758184;81;21141;-82
2023/02/09 08:02:41;;;;;;;68.87;32.33;;;;;;;-3.16;64.86;102580.16;1758606;81;21208;-82
2023/02/09 08:06:03;;;;;;;55.80;28.40;;;;;;;-2.91;64.50;102578.30;1719878;82;21559;-83
2023/02/09 08:09:10;;;;;;;67.17;28.60;;;;;;;-2.63;63.89;102568.69;1706493;83;21579;-83
2023/02/09 08:12:15;;;;;;;52.17;26.45;;;;;;;-2.31;62.60;102568.33;1703151;83;21766;-83
2023/02/09 08:15:16;;;;;;;49.70;24.02;;;;;;;-2.57;63.02;102562.30;1758932;81;21753;-83
2023/02/09 08:18:43;;;;;;;53.78;26.90;;;;;;;-2.30;62.03;102565.22;1740546;81;21607;-81
2023/02/09 08:21:50;;;;;;;45.38;23.50;;;;;;;-2.83;63.38;102557.08;1736697;81;21177;-81
2023/02/09 08:24:55;;;;;;;52.90;24.05;;;;;;;-2.30;61.77;102565.22;1744400;81;21161;-82
2023/02/09 08:28:00;;;;;;;44.30;21.02;;;;;;;-2.25;60.53;102558.81;1743853;81;21755;-81
2023/02/09 08:31:06;;;;;;;54.23;26.35;;;;;;;-2.14;59.84;102558.53;1739715;81;21161;-81
2023/02/09 08:34:14;;;;;;;45.15;21.57;;;;;;;-2.44;60.57;102562.42;1765506;81;21185;-81
2023/02/09 08:37:21;;;;;;;38.73;20.90;;;;;;;-1.80;59.08;102570.09;1749503;81;21232;-82
2023/02/09 08:40:27;;;;;;;48.73;22.48;;;;;;;-1.80;58.42;102569.22;1758854;80;21189;-82
2023/02/09 08:43:33;;;;;;;50.05;24.75;;;;;;;-2.46;59.93;102572.74;1753994;81;21200;-82
2023/02/09 08:46:40;;;;;;;52.58;25.37;;;;;;;-2.10;59.73;102561.55;1771508;81;21185;-82
2023/02/09 08:49:49;;;;;;;55.38;27.10;;;;;;;-1.81;58.89;102560.30;1770193;81;21192;-84
2023/02/09 08:52:56;;;;;;;63.42;25.55;;;;;;;-1.72;58.63;102557.83;1765934;80;21219;-81
2023/02/09 08:56:05;;;;;;;50.23;24.70;;;;;;;-1.69;58.55;102562.23;1714360;83;21197;-81
2023/02/09 08:59:11;;;;;;;45.50;23.52;;;;;;;-2.02;59.29;102559.55;1767254;81;21173;-81
2023/02/09 09:02:18;;;;;;;42.53;20.72;;;;;;;-1.82;59.06;102550.49;1699464;83;21241;-83
2023/02/09 09:05:25;;;;;;;39.70;20.20;;;;;;;-1.20;57.64;102548.72;1668022;86;21217;-83
2023/02/09 09:08:31;;;;;;;54.83;24.30;;;;;;;-0.94;56.58;102539.84;1662015;84;21261;-83
2023/02/09 09:11:38;;;;;;;51.00;23.67;;;;;;;-1.03;56.37;102534.31;1690557;84;21201;-84
2023/02/09 09:14:44;;;;;;;53.75;22.82;;;;;;;-0.90;56.10;102524.91;1673446;84;21161;-84
2023/02/09 09:17:51;;;;;;;41.20;20.17;;;;;;;-1.22;56.59;102529.98;1671443;86;21272;-85
2023/02/09 09:20:58;;;;;;;42.90;21.60;;;;;;;-0.98;56.22;102522.96;1672056;84;21751;-85
2023/02/09 09:24:04;;;;;;;51.80;23.18;;;;;;;-0.83;55.87;102518.44;1668668;86;21194;-82
2023/02/09 09:27:09;;;;;;;45.38;21.25;;;;;;;-0.86;56.14;102521.20;1671509;84;21200;-80
2023/02/09 09:30:16;;;;;;;48.85;22.02;;;;;;;-0.68;55.60;102514.83;1672459;86;21224;-82
2023/02/09 09:33:22;;;;;;;43.13;21.12;;;;;;;-0.22;54.27;102499.83;1672775;86;21220;-82
2023/02/09 09:36:29;;;;;;;45.03;21.55;;;;;;;-0.09;54.08;102499.81;1673093;86;21209;-80
2023/02/09 09:39:35;;;;;;;40.03;20.80;;;;;;;-0.23;54.04;102500.30;1690751;84;21319;-83
2023/02/09 09:42:49;;;;;;;39.70;18.15;;;;;;;-0.17;53.68;102487.09;1700580;84;21172;-82
2023/02/09 09:45:54;;;;;;;37.80;16.80;;;;;;;0.05;53.05;102490.78;1755176;81;21205;-81
2023/02/09 09:49:02;;;;;;;34.35;17.73;;;;;;;-0.23;53.47;102485.98;1708163;83;21170;-84
2023/02/09 09:52:05;;;;;;;38.67;18.82;;;;;;;-0.06;52.61;102484.89;1743332;81;21840;-83
2023/02/09 09:54:58;;;;;;;47.93;22.95;;;;;;;-0.12;52.67;102485.12;1754313;81;21272;-83
2023/02/09 09:58:06;;;;;;;50.75;24.50;;;;;;;0.03;52.93;102487.25;1736713;81;21185;-85
2023/02/09 10:01:15;;;;;;;51.13;23.65;;;;;;;-0.33;54.28;102483.61;1744435;81;21161;-80
2023/02/09 10:04:22;;;;;;;51.60;24.02;;;;;;;-0.16;54.15;102487.50;1720745;82;21155;-84
2023/02/09 10:07:29;;;;;;;48.95;25.97;;;;;;;0.06;53.87;102478.20;1744099;80;21188;-81
2023/02/09 10:10:45;;;;;;;61.88;25.43;;;;;;;-0.16;54.07;102474.92;1711643;79;21153;-81
2023/02/09 10:14:00;;;;;;;53.52;23.60;;;;;;;-0.17;54.15;102471.83;1756036;81;21168;-80
2023/02/09 10:17:05;;;;;;;55.52;24.63;;;;;;;0.03;53.79;102471.10;1709546;83;21251;-82
2023/02/09 10:20:13;;;;;;;54.15;27.52;;;;;;;-0.13;54.44;102467.23;1745504;82;21714;-85
2023/02/09 10:23:31;;;;;;;56.90;24.70;;;;;;;-0.15;54.57;102456.97;1738909;81;21204;-81
2023/02/09 10:26:41;;;;;;;56.42;23.38;;;;;;;-0.13;54.59;102455.12;1727313;81;21224;-81
2023/02/09 10:29:47;;;;;;;55.00;26.33;;;;;;;0.03;54.36;102447.36;1736968;82;21165;-84
2023/02/09 10:32:53;;;;;;;56.28;25.77;;;;;;;-0.02;54.46;102443.48;1728638;83;21217;-85
2023/02/09 10:36:08;;;;;;;60.30;28.38;;;;;;;0.06;54.39;102444.09;1732297;82;21755;-85
2023/02/09 10:39:22;;;;;;;62.13;26.48;;;;;;;0.10;54.25;102432.28;1726456;83;21165;-82
2023/02/09 10:42:44;;;;;;;54.05;26.20;;;;;;;0.11;54.29;102428.65;1763882;81;21678;-82
2023/02/09 10:45:50;;;;;;;66.53;27.95;;;;;;;-0.14;54.68;102433.16;1766232;81;21236;-81
2023/02/09 10:48:57;;;;;;;62.27;28.10;;;;;;;0.38;53.69;102435.28;1722895;83;21185;-81
2023/02/09 10:52:24;;;;;;;52.98;27.35;;;;;;;0.73;52.77;102423.98;1703902;83;21193;-84
2023/02/09 10:55:35;;;;;;;62.30;27.77;;;;;;;0.73;52.68;102428.02;1700142;84;21201;-85
2023/02/09 10:58:44;;;;;;;53.63;26.00;;;;;;;0.70;52.03;102416.00;1703840;84;21277;-84
2023/02/09 11:01:53;;;;;;;40.78;20.45;;;;;;;0.60;52.23;102420.48;1700302;84;21264;-84
2023/02/09 11:04:59;;;;;;;61.63;29.07;;;;;;;0.47;52.45;102415.60;1700928;84;21181;-85
2023/02/09 11:08:27;;;;;;;56.98;25.27;;;;;;;0.31;52.70;102413.08;1681126;84;21182;-81
2023/02/09 11:11:44;;;;;;;51.88;25.50;;;;;;;-0.36;53.73;102424.55;1712303;83;21177;-82
2023/02/09 11:14:50;;;;;;;58.85;26.97;;;;;;;-0.08;53.34;102412.78;1741891;82;22067;-82
2023/02/09 11:18:00;;;;;;;66.47;27.50;;;;;;;0.31;53.18;102405.00;1740892;82;21220;-82
2023/02/09 11:21:21;;;;;;;55.10;29.80;;;;;;;0.52;52.56;102411.38;1741179;82;21236;-82
2023/02/09 11:25:01;;;;;;;61.33;28.62;;;;;;;0.62;52.42;102403.34;1741883;82;21181;-83
2023/02/09 11:28:30;;;;;;;57.33;28.10;;;;;;;0.38;52.64;102394.89;1740634;82;21228;-84
2023/02/09 11:32:01;;;;;;;60.35;29.02;;;;;;;0.49;52.60;102387.26;1760246;79;21161;-81
2023/02/09 11:35:17;;;;;;;55.33;27.90;;;;;;;0.21;52.90;102385.64;1726870;81;21185;-81
2023/02/09 11:38:25;;;;;;;61.05;29.92;;;;;;;0.29;52.69;102387.17;1743537;81;21181;-81
2023/02/09 11:45:06;;;;;;;68.02;31.87;;;;;;;0.10;53.40;102371.73;1703720;84;21195;-82
2023/02/09 11:48:22;;;;;;;59.33;29.85;;;;;;;0.12;53.39;102373.88;1707031;83;21213;-84
2023/02/09 11:51:30;;;;;;;63.08;29.02;;;;;;;0.12;53.12;102376.58;1723267;83;21154;-81
2023/02/09 11:54:38;;;;;;;53.90;29.18;;;;;;;-0.12;53.35;102381.08;1723757;82;21729;-84
2023/02/09 11:57:52;;;;;;;56.80;27.48;;;;;;;0.15;53.17;102372.44;1730528;83;21200;-83
2023/02/09 12:01:04;;;;;;;67.65;29.32;;;;;;;-0.57;54.20;102371.52;1733444;83;21193;-85
2023/02/09 12:04:25;;;;;;;49.10;25.70;;;;;;;-0.34;53.39;102372.91;1720494;82;21169;-82
2023/02/09 12:08:05;;;;;;;58.63;26.33;;;;;;;-0.28;53.86;102371.36;1717421;83;21208;-84
2023/02/09 12:11:37;;;;;;;65.97;29.67;;;;;;;0.10;52.46;102360.97;1708868;83;21157;-82
2023/02/09 12:14:54;;;;;;;49.58;26.37;;;;;;;0.15;52.51;102358.98;1722386;82;21153;-80
2023/02/09 12:18:06;;;;;;;54.48;27.67;;;;;;;0.11;52.73;102350.61;1723009;82;21192;-80
2023/02/09 12:21:12;;;;;;;53.00;26.33;;;;;;;-0.15;53.37;102354.75;1734868;81;21184;-80
2023/02/09 12:24:42;;;;;;;61.68;30.90;;;;;;;-0.31;53.77;102353.98;1744655;81;21213;-81
2023/02/09 12:27:50;;;;;;;42.93;22.47;;;;;;;-0.28;53.72;102352.54;1711104;82;21180;-84
2023/02/09 12:31:02;;;;;;;62.75;31.00;;;;;;;-0.11;53.15;102342.94;1722424;82;21429;-80
2023/02/09 12:34:18;;;;;;;62.65;28.85;;;;;;;-0.31;54.03;102351.77;1719911;83;21217;-84
2023/02/09 12:37:32;;;;;;;59.13;29.82;;;;;;;-0.11;53.51;102348.33;1714958;82;21781;-81
2023/02/09 12:40:43;;;;;;;59.10;29.67;;;;;;;0.20;52.80;102348.91;1716403;83;21193;-84
2023/02/09 12:43:49;;;;;;;63.63;32.75;;;;;;;-0.09;53.26;102343.78;1742230;81;21758;-85
2023/02/09 12:46:54;;;;;;;67.40;33.02;;;;;;;-0.31;54.43;102339.20;1765970;81;21220;-81
2023/02/09 12:49:47;;;;;;;48.87;25.80;;;;;;;0.09;53.61;102333.62;1712485;83;21182;-80
2023/02/09 12:53:33;;;;;;;69.05;31.80;;;;;;;0.05;53.59;102333.36;1741158;81;21275;-85
2023/02/09 12:56:40;;;;;;;59.15;27.35;;;;;;;0.10;53.61;102332.72;1757099;81;21852;-80
2023/02/09 12:59:44;;;;;;;56.23;29.45;;;;;;;-0.19;54.23;102331.59;1755911;81;21160;-80
2023/02/09 13:02:55;;;;;;;57.95;28.60;;;;;;;0.03;53.07;102325.80;1699099;83;21276;-85
2023/02/09 13:06:02;;;;;;;57.88;30.08;;;;;;;0.24;53.21;102322.75;1702724;83;21726;-84
2023/02/09 13:09:10;;;;;;;53.65;27.62;;;;;;;0.26;53.10;102324.90;1673386;83;21766;-84
2023/02/09 13:12:30;;;;;;;59.42;29.30;;;;;;;0.21;52.99;102322.39;1705181;81;21211;-82
2023/02/09 13:15:39;;;;;;;59.23;29.40;;;;;;;0.06;53.10;102318.97;1772233;81;21166;-80
2023/02/09 13:19:28;;;;;;;58.40;29.50;;;;;;;0.17;53.26;102320.75;1743775;81;21225;-80
2023/02/09 13:22:55;;;;;;;56.63;28.65;;;;;;;0.12;52.91;102325.44;1759052;81;21179;-80
2023/02/09 13:26:09;;;;;;;59.13;26.10;;;;;;;0.16;52.08;102325.73;1720771;82;21169;-81
2023/02/09 13:29:26;;;;;;;46.75;25.27;;;;;;;-0.14;52.33;102324.22;1683007;84;21737;-80
2023/02/09 13:33:00;;;;;;;42.35;23.15;;;;;;;-0.15;52.53;102322.47;1725764;82;21188;-80
2023/02/09 13:36:52;;;;;;;45.73;23.75;;;;;;;-0.19;52.31;102328.90;1680726;84;21789;-81
2023/02/09 13:40:07;;;;;;;65.97;27.77;;;;;;;-0.33;53.02;102324.94;1690785;84;21205;-85
2023/02/09 13:43:22;;;;;;;56.63;26.55;;;;;;;-0.39;52.98;102320.24;1721548;83;21224;-81
2023/02/09 13:46:34;;;;;;;58.85;27.20;;;;;;;-0.02;52.16;102313.88;1735867;82;21221;-85
2023/02/09 13:49:39;;;;;;;50.60;24.02;;;;;;;-0.09;52.23;102309.69;1766099;81;21161;-81
2023/02/09 13:52:44;;;;;;;72.90;29.63;;;;;;;-0.29;52.45;102311.77;1710139;82;21300;-82
2023/02/09 13:55:54;;;;;;;67.90;29.52;;;;;;;-0.40;53.12;102317.15;1688961;85;21817;-84
2023/02/09 13:59:00;;;;;;;66.42;31.30;;;;;;;-0.42;53.54;102311.84;1717984;83;21277;-82
2023/02/09 14:02:07;;;;;;;69.90;33.58;;;;;;;-0.07;53.46;102306.92;1718203;83;21320;-81
2023/02/09 14:05:12;;;;;;;69.42;33.50;;;;;;;-0.36;53.07;102300.84;1680214;85;21186;-81
2023/02/09 14:08:21;;;;;;;72.40;35.08;;;;;;;-0.32;53.29;102301.62;1698628;84;21348;-81
2023/02/09 14:11:49;;;;;;;72.92;35.40;;;;;;;-0.32;53.75;102298.45;1698898;84;21206;-85
2023/02/09 14:18:33;;;;;;;102.32;43.87;;;;;;;-0.74;54.55;102299.58;1698356;84;21217;-81
2023/02/09 14:21:52;;;;;;;104.83;49.58;;;;;;;-0.91;55.44;102302.85;1697999;84;21881;-85
2023/02/09 14:24:57;;;;;;;104.45;52.83;;;;;;;-0.90;55.80;102299.23;1698168;84;21806;-81
2023/02/09 14:28:03;;;;;;;117.25;53.28;;;;;;;-0.85;55.94;102305.78;1698595;84;21225;-85
2023/02/09 14:31:08;;;;;;;116.08;54.73;;;;;;;-1.21;56.83;102305.28;1699117;84;21222;-80
2023/02/09 14:34:32;;;;;;;124.20;58.95;;;;;;;-1.27;57.45;102299.66;1699990;84;21217;-85
2023/02/09 14:37:38;;;;;;;131.45;60.35;;;;;;;-1.02;57.46;102298.80;1699960;84;21794;-82